KAUW

Details ICAO KAUW
Name Wausau Downtown
Region United States
Timezone America/Chicago (UTC-5.0)
Plans Departing 3
Arriving 4
Stats Elevation 1,201 ft / 366 m (AMSL)
Location 44.926049° -89.625486°
Runways 2
Magnetic Variation 2.831° W
Sunrise 2018-05-21 10:24:54 UTC / 2018-05-21 05:24:54 Local
Sunset 2018-05-22 01:28:10 UTC / 2018-05-21 20:28:10 Local
Advertisement - Login to hide

Runways

ID Width Length Bearing (true) Bearing (mag) Surface Threshold Offset Overrun Length
04 98 ft / 30 m 3,083 ft / 940 m 43.91° 46.74° Asphalt 0 ft / 0 m 0 ft / 0 m
12 98 ft / 30 m 4,956 ft / 1,511 m 124.94° 127.77° Asphalt 0 ft / 0 m 0 ft / 0 m
22 98 ft / 30 m 3,083 ft / 940 m 223.91° 226.74° Asphalt 0 ft / 0 m 39 ft / 12 m
30 98 ft / 30 m 4,956 ft / 1,511 m 304.95° 307.78° Asphalt 0 ft / 0 m 0 ft / 0 m

Map

Weather


0- 5 10 15 20 25 30 35+ Temperature / ° C

Clouds and Precipitation
Forecast for 2018-05-22 00:00 UTC. Updated 3 hours ago

Ground ~20,000 ft ~40,000 ft Winds

METAR

KAUW 220154Z AUTO 11007KT 10SM OVC010 12/11 A3003 RMK AO2 CIG 007V012 SLP176 T01170106

TAF

TAF AMD KAUW 220133Z 2202/2224 10007KT P6SM OVC010 FM220800 04002KT 6SM -SHRA BR OVC006 FM221200 36002KT P6SM BKN007 FM221600 34003KT P6SM BKN011 FM221700 28003KT P6SM SCT045

Frequencies

Recorded 125.92 MHz ASOS
Approach 134.95 MHz ORLANDO APP/DEP
Unicom 122.70 MHz CTAF/UNICOM
Warning: Do not use this data for real-world aviation or navigation. No guarantee of current accuracy is given.